Time;durP1;ratioP1;P1;durP2;ratioP2;P2;SDS_P1;SDS_P2;PMS_P1;PMS_P2;Temp;Humidity;BMP_temperature;BMP_pressure;BME280_temperature;BME280_humidity;BME280_pressure;Samples;Min_cycle;Max_cycle;Signal;HPM_P1;HPM_P2
2020/12/28 00:00:35;;;;;;;;;;;;;;;-6.62;100.00;102213.48;1867353;77;20117;-39
2020/12/28 00:03:03;;;;;;;;;;;;;;;-6.60;100.00;102211.94;1867395;77;20219;-38
2020/12/28 00:05:31;;;;;;;;;;;;;;;-6.60;100.00;102208.11;1867183;77;20160;-38
2020/12/28 00:07:59;;;;;;;;;;;;;;;-6.57;100.00;102205.81;1867231;77;20420;-38
2020/12/28 00:10:28;;;;;;;;;;;;;;;-6.55;100.00;102202.97;1867253;77;20180;-39
2020/12/28 00:12:55;;;;;;;;;;;;;;;-6.54;100.00;102202.20;1867432;77;20124;-39
2020/12/28 00:15:26;;;;;;;;;;;;;;;-6.52;100.00;102198.12;1867227;77;20231;-39
2020/12/28 00:17:56;;;;;;;;;;;;;;;-6.47;100.00;102201.00;1867689;77;20153;-38
2020/12/28 00:20:25;;;;;;;;;;;;;;;-6.42;100.00;102188.58;1867252;77;20149;-38
2020/12/28 00:22:54;;;;;;;;;;;;;;;-6.41;100.00;102193.80;1867116;77;20402;-38
2020/12/28 00:25:22;;;;;;;;;;;;;;;-6.39;100.00;102195.20;1867310;77;20121;-39
2020/12/28 00:27:50;;;;;;;;;;;;;;;-6.40;100.00;102198.52;1867309;77;20145;-39
2020/12/28 00:30:18;;;;;;;;;;;;;;;-6.46;100.00;102198.58;1867252;77;20267;-38
2020/12/28 00:32:46;;;;;;;;;;;;;;;-6.51;100.00;102188.42;1867554;77;20267;-38
2020/12/28 00:35:14;;;;;;;;;;;;;;;-6.53;100.00;102183.96;1867361;77;20232;-37
2020/12/28 00:37:42;;;;;;;;;;;;;;;-6.54;100.00;102183.45;1867186;77;20188;-39
2020/12/28 00:40:13;;;;;;;;;;;;;;;-6.53;100.00;102180.14;1867303;76;20457;-40
2020/12/28 00:42:41;;;;;;;;;;;;;;;-6.53;100.00;102179.75;1867406;77;20219;-39
2020/12/28 00:45:09;;;;;;;;;;;;;;;-6.53;100.00;102173.77;1867321;77;20144;-39
2020/12/28 00:47:37;;;;;;;;;;;;;;;-6.51;100.00;102173.50;1867249;77;20172;-39
2020/12/28 00:50:07;;;;;;;;;;;;;;;-6.50;100.00;102169.77;1867395;77;20141;-38
2020/12/28 00:52:35;;;;;;;;;;;;;;;-6.50;100.00;102170.18;1867591;77;20168;-38
2020/12/28 00:55:05;;;;;;;;;;;;;;;-6.50;100.00;102166.36;1867281;77;20207;-39
2020/12/28 00:57:33;;;;;;;;;;;;;;;-6.51;100.00;102163.30;1867678;77;20382;-40
2020/12/28 01:00:02;;;;;;;;;;;;;;;-6.51;100.00;102154.38;1867507;77;20523;-38
2020/12/28 01:02:33;;;;;;;;;;;;;;;-6.52;100.00;102156.03;1867606;76;20148;-39
2020/12/28 01:05:04;;;;;;;;;;;;;;;-6.52;100.00;102144.94;1872392;75;20199;-40
2020/12/28 01:07:33;;;;;;;;;;;;;;;-6.51;100.00;102140.34;1867501;77;20139;-38
2020/12/28 01:10:03;;;;;;;;;;;;;;;-6.51;100.00;102150.16;1865560;75;20154;-39
2020/12/28 01:12:32;;;;;;;;;;;;;;;-6.50;100.00;102154.45;1834351;77;20122;-39
2020/12/28 01:15:01;;;;;;;;;;;;;;;-6.50;100.00;102153.18;1867279;77;20281;-39
2020/12/28 01:17:30;;;;;;;;;;;;;;;-6.52;100.00;102144.55;1865806;77;20222;-39
2020/12/28 01:20:00;;;;;;;;;;;;;;;-6.54;100.00;102147.36;1863341;77;20162;-39
2020/12/28 01:22:30;;;;;;;;;;;;;;;-6.54;100.00;102147.36;1867237;77;20225;-39
2020/12/28 01:24:58;;;;;;;;;;;;;;;-6.54;100.00;102142.27;1867277;77;20150;-38
2020/12/28 01:27:27;;;;;;;;;;;;;;;-6.58;100.00;102146.64;1867233;77;20162;-40
2020/12/28 01:29:55;;;;;;;;;;;;;;;-6.63;100.00;102146.66;1867463;77;20202;-37
2020/12/28 01:32:23;;;;;;;;;;;;;;;-6.67;100.00;102146.33;1867166;77;20122;-39
2020/12/28 01:35:09;;;;;;;;;;;;;;;-6.73;100.00;102142.05;1867476;77;20193;-39
2020/12/28 01:37:37;;;;;;;;;;;;;;;-6.79;100.00;102135.21;1867526;77;20170;-40
2020/12/28 01:40:05;;;;;;;;;;;;;;;-6.82;100.00;102137.52;1867182;77;20245;-41
2020/12/28 01:42:33;;;;;;;;;;;;;;;-6.85;100.00;102148.39;1867247;77;20138;-39
2020/12/28 01:45:00;;;;;;;;;;;;;;;-6.89;100.00;102155.28;1867194;77;20174;-40
2020/12/28 01:47:29;;;;;;;;;;;;;;;-6.92;100.00;102157.61;1867623;77;20131;-39
2020/12/28 01:49:57;;;;;;;;;;;;;;;-6.93;100.00;102156.72;1867359;77;20186;-40
2020/12/28 01:52:25;;;;;;;;;;;;;;;-6.95;100.00;102148.44;1867409;77;20162;-39
2020/12/28 01:54:54;;;;;;;;;;;;;;;-6.97;100.00;102153.83;1834466;77;20166;-38
2020/12/28 01:57:22;;;;;;;;;;;;;;;-6.98;100.00;102157.14;1867293;77;20443;-39
2020/12/28 01:59:51;;;;;;;;;;;;;;;-7.00;100.00;102144.66;1866568;77;20178;-38
2020/12/28 02:02:21;;;;;;;;;;;;;;;-7.01;100.00;102141.60;1866031;77;20277;-39
2020/12/28 02:04:50;;;;;;;;;;;;;;;-7.03;100.00;102141.90;1834747;77;20154;-38
2020/12/28 02:07:18;;;;;;;;;;;;;;;-7.05;100.00;102147.25;1834464;77;20143;-38
2020/12/28 02:09:46;;;;;;;;;;;;;;;-7.08;100.00;102140.25;1867401;77;20392;-39
2020/12/28 02:12:14;;;;;;;;;;;;;;;-7.12;100.00;102140.80;1848791;77;20458;-39
2020/12/28 02:14:42;;;;;;;;;;;;;;;-7.15;100.00;102138.00;1867276;77;20304;-39
2020/12/28 02:17:12;;;;;;;;;;;;;;;-7.18;100.00;102141.59;1865662;77;20186;-39
2020/12/28 02:19:42;;;;;;;;;;;;;;;-7.20;100.00;102145.68;1866917;77;20170;-39
2020/12/28 02:22:10;;;;;;;;;;;;;;;-7.20;100.00;102140.58;1862513;77;20159;-39
2020/12/28 02:26:49;;;;;;;;;;;;;;;-7.12;100.00;102136.97;1908353;74;20130;-38
2020/12/28 02:29:17;;;;;;;;;;;;;;;-7.17;100.00;102131.03;1886172;75;20270;-40
2020/12/28 02:31:45;;;;;;;;;;;;;;;-7.18;100.00;102130.13;1902245;75;20405;-39
2020/12/28 02:34:18;;;;;;;;;;;;;;;-7.17;100.00;102129.38;1903197;75;20179;-40
2020/12/28 02:36:59;;;;;;;;;;;;;;;-7.14;100.00;102128.70;1902553;75;20168;-38
2020/12/28 02:39:29;;;;;;;;;;;;;;;-7.13;100.00;102134.30;1897577;75;20139;-38
2020/12/28 02:41:57;;;;;;;;;;;;;;;-7.14;100.00;102141.05;1903471;75;20203;-40
2020/12/28 02:44:30;;;;;;;;;;;;;;;-7.15;100.00;102139.69;1859183;75;20136;-40
2020/12/28 02:47:17;;;;;;;;;;;;;;;-7.16;100.00;102141.73;1903486;75;20168;-39
2020/12/28 02:50:04;;;;;;;;;;;;;;;-7.16;100.00;102134.97;1903221;75;20187;-38
2020/12/28 02:52:50;;;;;;;;;;;;;;;-7.17;100.00;102129.38;1903163;75;20140;-38
2020/12/28 02:55:36;;;;;;;;;;;;;;;-7.19;100.00;102128.35;1903184;75;20140;-39
2020/12/28 02:58:22;;;;;;;;;;;;;;;-7.21;100.00;102128.61;1903209;75;20321;-38
2020/12/28 03:01:10;;;;;;;;;;;;;;;-7.22;100.00;102131.06;1903028;75;20144;-39
2020/12/28 03:03:56;;;;;;;;;;;;;;;-7.24;100.00;102136.03;1903216;75;20130;-38
2020/12/28 03:06:42;;;;;;;;;;;;;;;-7.26;100.00;102140.11;1902987;75;20183;-38
2020/12/28 03:09:11;;;;;;;;;;;;;;;-7.29;100.00;102133.14;1856087;75;20171;-38
2020/12/28 03:11:57;;;;;;;;;;;;;;;-7.29;100.00;102130.59;1902970;75;20140;-39
2020/12/28 03:14:43;;;;;;;;;;;;;;;-7.29;100.00;102133.14;1903021;75;20120;-39
2020/12/28 03:17:29;;;;;;;;;;;;;;;-7.28;100.00;102130.17;1903327;75;20147;-38
2020/12/28 03:20:16;;;;;;;;;;;;;;;-7.29;100.00;102124.23;1903239;75;20231;-44
2020/12/28 03:23:01;;;;;;;;;;;;;;;-7.29;100.00;102131.87;1903041;75;20160;-39
2020/12/28 03:25:48;;;;;;;;;;;;;;;-7.29;100.00;102128.43;1903019;75;20121;-39
2020/12/28 03:28:35;;;;;;;;;;;;;;;-7.29;100.00;102128.05;1903112;75;20136;-39
2020/12/28 03:31:23;;;;;;;;;;;;;;;-7.28;100.00;102120.88;1902972;75;20199;-39
2020/12/28 03:34:09;;;;;;;;;;;;;;;-7.26;100.00;102122.28;1873770;75;20396;-38
2020/12/28 03:36:55;;;;;;;;;;;;;;;-7.21;100.00;102120.08;1902875;75;20140;-40
2020/12/28 03:39:41;;;;;;;;;;;;;;;-7.18;100.00;102114.84;1902368;75;20148;-39
2020/12/28 03:42:27;;;;;;;;;;;;;;;-7.15;100.00;102118.03;1902470;75;20128;-39
2020/12/28 03:45:14;;;;;;;;;;;;;;;-7.15;100.00;102116.34;1902446;75;20461;-37
2020/12/28 03:48:01;;;;;;;;;;;;;;;-7.16;100.00;102122.23;1902639;75;20132;-38
2020/12/28 03:50:47;;;;;;;;;;;;;;;-7.15;100.00;102118.89;1902525;75;20160;-38
2020/12/28 03:53:22;;;;;;;;;;;;;;;-7.12;100.00;102114.42;1864570;75;20120;-38
2020/12/28 03:56:08;;;;;;;;;;;;;;;-7.08;100.00;102122.80;1902616;75;20129;-39
2020/12/28 03:58:54;;;;;;;;;;;;;;;-7.07;100.00;102119.48;1902479;75;20187;-39
2020/12/28 04:01:40;;;;;;;;;;;;;;;-7.05;100.00;102126.48;1902466;75;20140;-38
2020/12/28 04:04:26;;;;;;;;;;;;;;;-7.05;100.00;102126.86;1902477;75;20243;-38
2020/12/28 04:07:13;;;;;;;;;;;;;;;-7.06;100.00;102120.88;1902704;75;20163;-38
2020/12/28 04:09:58;;;;;;;;;;;;;;;-7.07;100.00;102118.20;1902563;75;20188;-38
2020/12/28 04:12:37;;;;;;;;;;;;;;;-7.11;100.00;102118.75;1899548;75;20124;-39
2020/12/28 04:15:05;;;;;;;;;;;;;;;-7.13;100.00;102119.02;1902374;75;20224;-39
2020/12/28 04:17:33;;;;;;;;;;;;;;;-7.15;100.00;102123.98;1902846;75;20199;-40
2020/12/28 04:20:01;;;;;;;;;;;;;;;-7.16;100.00;102134.08;1902355;75;20195;-38
2020/12/28 04:22:29;;;;;;;;;;;;;;;-7.20;100.00;102134.21;1901593;75;20132;-39
2020/12/28 04:24:57;;;;;;;;;;;;;;;-7.23;100.00;102138.20;1902636;75;20184;-39
2020/12/28 04:27:25;;;;;;;;;;;;;;;-7.27;100.00;102135.78;1897482;75;20272;-38
2020/12/28 04:29:54;;;;;;;;;;;;;;;-7.28;100.00;102141.64;1867184;77;20396;-40
2020/12/28 04:32:21;;;;;;;;;;;;;;;-7.30;100.00;102142.83;1867234;77;20174;-39
2020/12/28 04:34:49;;;;;;;;;;;;;;;-7.31;100.00;102147.79;1867318;77;20230;-38
2020/12/28 04:37:17;;;;;;;;;;;;;;;-7.33;100.00;102139.13;1867280;77;20186;-38
2020/12/28 04:39:45;;;;;;;;;;;;;;;-7.34;100.00;102136.97;1867269;77;20122;-38
2020/12/28 04:42:12;;;;;;;;;;;;;;;-7.36;100.00;102138.53;1869498;76;20135;-40
2020/12/28 04:44:41;;;;;;;;;;;;;;;-7.35;100.00;102136.88;1868352;75;20228;-39
2020/12/28 04:47:10;;;;;;;;;;;;;;;-7.34;100.00;102138.63;1852824;75;20140;-40
2020/12/28 04:49:38;;;;;;;;;;;;;;;-7.33;100.00;102138.75;1902241;75;20162;-39
2020/12/28 04:52:06;;;;;;;;;;;;;;;-7.32;100.00;102129.07;1889398;75;20288;-39
2020/12/28 04:54:33;;;;;;;;;;;;;;;-7.28;100.00;102145.46;1867324;75;20131;-39
2020/12/28 04:57:01;;;;;;;;;;;;;;;-7.26;100.00;102141.38;1867983;75;20221;-40
2020/12/28 04:59:29;;;;;;;;;;;;;;;-7.25;100.00;102138.08;1867204;77;20229;-39
2020/12/28 05:01:57;;;;;;;;;;;;;;;-7.21;100.00;102142.63;1871045;75;20126;-39
2020/12/28 05:04:25;;;;;;;;;;;;;;;-7.17;100.00;102139.56;1882303;75;20284;-39
2020/12/28 05:07:05;;;;;;;;;;;;;;;-7.13;100.00;102139.39;1878281;75;20182;-40
2020/12/28 05:09:33;;;;;;;;;;;;;;;-7.10;100.00;102149.45;1874038;75;20335;-39
2020/12/28 05:12:03;;;;;;;;;;;;;;;-7.06;100.00;102143.81;1872104;75;20200;-40
2020/12/28 05:14:32;;;;;;;;;;;;;;;-7.05;100.00;102151.08;1867387;75;20136;-39
2020/12/28 05:17:03;;;;;;;;;;;;;;;-7.04;100.00;102151.58;1879913;75;20132;-39
2020/12/28 05:19:32;;;;;;;;;;;;;;;-7.05;100.00;102162.16;1883951;75;20225;-38
2020/12/28 05:22:00;;;;;;;;;;;;;;;-7.05;100.00;102159.61;1867088;77;20404;-40
2020/12/28 05:24:28;;;;;;;;;;;;;;;-7.03;100.00;102163.56;1876633;75;20175;-42
2020/12/28 05:26:56;;;;;;;;;;;;;;;-7.04;100.00;102169.03;1876067;75;20221;-40
2020/12/28 05:29:25;;;;;;;;;;;;;;;-7.05;100.00;102171.08;1877822;75;20293;-41
2020/12/28 05:31:55;;;;;;;;;;;;;;;-7.07;100.00;102168.78;1872326;75;20495;-40
2020/12/28 05:34:26;;;;;;;;;;;;;;;-7.06;100.00;102170.57;1873094;75;20307;-40
2020/12/28 05:36:56;;;;;;;;;;;;;;;-7.05;100.00;102170.19;1871117;75;20210;-40
2020/12/28 05:39:27;;;;;;;;;;;;;;;-7.06;100.00;102172.23;1869264;75;20171;-39
2020/12/28 05:42:07;;;;;;;;;;;;;;;-7.08;100.00;102167.38;1871096;75;20199;-40
2020/12/28 05:44:31;;;;;;;;;;;;;;;-7.08;100.00;102169.94;1870873;75;20200;-40
2020/12/28 05:47:11;;;;;;;;;;;;;;;-7.09;100.00;102175.45;1875707;75;20158;-41
2020/12/28 05:49:47;;;;;;;;;;;;;;;-7.09;100.00;102186.91;1873639;75;20182;-40
2020/12/28 05:52:15;;;;;;;;;;;;;;;-7.09;100.00;102187.30;1868407;75;20289;-40
2020/12/28 05:54:43;;;;;;;;;;;;;;;-7.09;100.00;102186.02;1856281;75;20233;-40
2020/12/28 05:57:12;;;;;;;;;;;;;;;-7.09;100.00;102191.12;1868907;75;20193;-40
2020/12/28 05:59:41;;;;;;;;;;;;;;;-7.07;100.00;102188.28;1868470;75;20328;-41
2020/12/28 06:02:09;;;;;;;;;;;;;;;-7.08;100.00;102191.21;1870769;75;20207;-40
2020/12/28 06:04:38;;;;;;;;;;;;;;;-7.06;100.00;102193.89;1845221;75;20198;-40
2020/12/28 06:07:06;;;;;;;;;;;;;;;-7.05;100.00;102186.37;1866758;75;20544;-40
2020/12/28 06:09:36;;;;;;;;;;;;;;;-7.03;100.00;102191.21;1817700;75;20177;-38
2020/12/28 06:12:06;;;;;;;;;;;;;;;-7.00;100.00;102190.53;1819669;75;20150;-41
2020/12/28 06:14:50;;;;;;;;;;;;;;;-6.98;100.00;102191.17;1874663;75;20195;-41
2020/12/28 06:17:26;;;;;;;;;;;;;;;-6.94;100.00;102182.98;1869050;75;20270;-41
2020/12/28 06:20:01;;;;;;;;;;;;;;;-6.90;100.00;102181.19;1861970;75;20189;-43
2020/12/28 06:22:29;;;;;;;;;;;;;;;-6.86;100.00;102176.81;1876992;75;20197;-41
2020/12/28 06:27:07;;;;;;;;;;;;;;;-6.70;100.00;102175.05;1908491;74;20203;-42
2020/12/28 06:29:36;;;;;;;;;;;;;;;-6.69;100.00;102179.73;1859552;75;20190;-41
2020/12/28 06:32:15;;;;;;;;;;;;;;;-6.62;100.00;102176.88;1878319;75;20283;-42
2020/12/28 06:34:45;;;;;;;;;;;;;;;-6.57;100.00;102176.48;1836755;77;20146;-41
2020/12/28 06:37:14;;;;;;;;;;;;;;;-6.50;100.00;102175.28;1881314;75;20299;-41
2020/12/28 06:39:43;;;;;;;;;;;;;;;-6.44;100.00;102169.36;1867055;75;20136;-41
2020/12/28 06:42:14;;;;;;;;;;;;;;;-6.40;100.00;102163.70;1871515;75;20169;-41
2020/12/28 06:44:43;;;;;;;;;;;;;;;-6.35;100.00;102170.02;1813879;75;20466;-41
2020/12/28 06:47:20;;;;;;;;;;;;;;;-6.32;100.00;102172.81;1826350;77;20182;-41
2020/12/28 06:49:51;;;;;;;;;;;;;;;-6.29;100.00;102173.41;1831872;75;20156;-41
2020/12/28 06:52:36;;;;;;;;;;;;;;;-6.26;100.00;102172.00;1822362;75;20209;-40
2020/12/28 06:55:10;;;;;;;;;;;;;;;-6.25;100.00;102173.78;1868378;75;20198;-42
2020/12/28 06:57:38;;;;;;;;;;;;;;;-6.23;100.00;102169.65;1868467;75;20202;-41
2020/12/28 07:00:19;;;;;;;;;;;;;;;-6.19;100.00;102172.06;1871511;75;20188;-41
2020/12/28 07:02:51;;;;;;;;;;;;;;;-6.16;100.00;102168.44;1866707;75;20162;-43
2020/12/28 07:05:24;;;;;;;;;;;;;;;-6.12;100.00;102164.97;1868098;75;20440;-43
2020/12/28 07:07:54;;;;;;;;;;;;;;;-6.08;100.00;102152.92;1872542;75;20204;-47
2020/12/28 07:10:24;;;;;;;;;;;;;;;-6.04;100.00;102161.29;1871400;75;20243;-42
2020/12/28 07:13:03;;;;;;;;;;;;;;;-5.99;100.00;102153.99;1823499;75;20171;-41
2020/12/28 07:15:33;;;;;;;;;;;;;;;-5.91;100.00;102155.83;1825065;75;20181;-41
2020/12/28 07:18:20;;;;;;;;;;;;;;;-5.83;100.00;102153.38;1807174;76;20201;-40
2020/12/28 07:20:57;;;;;;;;;;;;;;;-5.70;100.00;102145.82;1809504;75;20160;-43
2020/12/28 07:23:27;;;;;;;;;;;;;;;-5.56;100.00;102151.52;1895849;75;20489;-41
2020/12/28 07:26:07;;;;;;;;;;;;;;;-5.44;100.00;102153.66;1870290;75;20158;-41
2020/12/28 07:28:37;;;;;;;;;;;;;;;-5.29;100.00;102138.53;1868653;75;20267;-41
2020/12/28 07:31:06;;;;;;;;;;;;;;;-5.13;100.00;102135.37;1870914;75;20144;-41
2020/12/28 07:33:33;;;;;;;;;;;;;;;-5.05;100.00;102136.38;1868718;75;20238;-42
2020/12/28 07:36:12;;;;;;;;;;;;;;;-4.94;100.00;102135.86;1813206;78;20449;-42
2020/12/28 07:38:43;;;;;;;;;;;;;;;-4.78;100.00;102132.26;1834755;77;20665;-43
2020/12/28 07:41:16;;;;;;;;;;;;;;;-4.64;100.00;102128.08;1831271;77;20152;-40
2020/12/28 07:43:53;;;;;;;;;;;;;;;-4.48;100.00;102128.33;1804714;77;20123;-39
2020/12/28 07:46:36;;;;;;;;;;;;;;;-4.18;100.00;102129.05;1752693;78;20204;-41
2020/12/28 07:49:21;;;;;;;;;;;;;;;-3.72;100.00;102147.38;1811497;77;20291;-41
2020/12/28 07:51:52;;;;;;;;;;;;;;;-3.40;100.00;102140.43;1825144;77;20229;-41
2020/12/28 07:54:23;;;;;;;;;;;;;;;-3.18;100.00;102121.75;1798208;78;20281;-42
2020/12/28 07:56:54;;;;;;;;;;;;;;;-2.99;100.00;102121.18;1830691;77;20174;-41
2020/12/28 07:59:44;;;;;;;;;;;;;;;-2.72;100.00;102118.10;1831784;77;20200;-38
2020/12/28 08:02:40;;;;;;;;;;;;;;;-2.48;100.00;102117.86;1832161;77;20133;-41
2020/12/28 08:05:09;;;;;;;;;;;;;;;-2.20;100.00;102113.92;1833503;77;20125;-39
2020/12/28 08:07:36;;;;;;;;;;;;;;;-2.05;100.00;102115.20;1798145;77;20296;-40
2020/12/28 08:10:08;;;;;;;;;;;;;;;-1.91;100.00;102121.13;1832010;77;20303;-40
2020/12/28 08:12:44;;;;;;;;;;;;;;;-1.70;100.00;102119.33;1834723;77;20200;-43
2020/12/28 08:15:14;;;;;;;;;;;;;;;-1.48;100.00;102111.52;1789805;80;20171;-39
2020/12/28 08:17:43;;;;;;;;;;;;;;;-1.54;98.71;102113.35;1799836;77;20289;-41
2020/12/28 08:20:12;;;;;;;;;;;;;;;-1.39;97.90;102112.91;1830464;77;20388;-43
2020/12/28 08:22:42;;;;;;;;;;;;;;;-1.21;96.59;102102.31;1834658;77;20184;-42
2020/12/28 08:25:10;;;;;;;;;;;;;;;-1.14;95.20;102097.48;1835511;77;20206;-40
2020/12/28 08:27:38;;;;;;;;;;;;;;;-1.03;94.25;102087.34;1808105;78;20181;-40
2020/12/28 08:30:07;;;;;;;;;;;;;;;-1.02;92.87;102090.41;1829952;77;20192;-39
2020/12/28 08:32:36;;;;;;;;;;;;;;;-0.99;91.90;102095.73;1818391;78;20185;-40
2020/12/28 08:35:04;;;;;;;;;;;;;;;-0.97;91.21;102087.26;1815465;77;20252;-37
2020/12/28 08:37:34;;;;;;;;;;;;;;;-1.00;90.01;102078.51;1801526;78;20226;-41
2020/12/28 08:40:14;;;;;;;;;;;;;;;-1.19;89.10;102076.67;1835062;77;20219;-47
2020/12/28 08:42:41;;;;;;;;;;;;;;;-1.25;88.73;102077.20;1798579;78;20289;-39
2020/12/28 08:45:23;;;;;;;;;;;;;;;-1.26;88.60;102081.00;1832529;77;20646;-41
2020/12/28 08:47:58;;;;;;;;;;;;;;;-1.22;88.44;102061.95;1783083;78;20305;-42
2020/12/28 08:50:34;;;;;;;;;;;;;;;-1.24;87.71;102061.37;1764620;78;20175;-42
2020/12/28 08:53:03;;;;;;;;;;;;;;;-1.39;87.32;102055.04;1786227;78;20173;-39
2020/12/28 08:55:30;;;;;;;;;;;;;;;-1.51;87.07;102051.78;1838086;77;20226;-39
2020/12/28 08:57:59;;;;;;;;;;;;;;;-1.55;87.01;102047.69;1830368;77;20454;-42
2020/12/28 09:00:27;;;;;;;;;;;;;;;-1.53;87.08;102045.70;1829949;77;20215;-42
2020/12/28 09:02:57;;;;;;;;;;;;;;;-1.47;87.01;102043.45;1828785;77;20192;-41
2020/12/28 09:05:28;;;;;;;;;;;;;;;-1.41;86.90;102033.48;1833216;77;20190;-43
2020/12/28 09:07:56;;;;;;;;;;;;;;;-1.38;86.63;102040.06;1798722;77;20208;-41
2020/12/28 09:10:24;;;;;;;;;;;;;;;-1.42;86.42;102040.71;1830429;77;20204;-40
2020/12/28 09:12:56;;;;;;;;;;;;;;;-1.46;86.43;102029.80;1832369;77;20188;-39
2020/12/28 09:15:26;;;;;;;;;;;;;;;-1.45;86.25;102029.00;1829499;77;20202;-39
2020/12/28 09:17:54;;;;;;;;;;;;;;;-1.44;86.07;102024.30;1832526;77;20240;-41
2020/12/28 09:20:22;;;;;;;;;;;;;;;-1.46;85.49;102023.36;1829139;77;20295;-42
2020/12/28 09:22:50;;;;;;;;;;;;;;;-1.49;85.13;102020.61;1828155;77;20592;-40
2020/12/28 09:25:17;;;;;;;;;;;;;;;-1.43;85.11;102011.05;1832690;77;20276;-39
2020/12/28 09:27:45;;;;;;;;;;;;;;;-1.34;84.77;102013.72;1834382;77;20184;-45
2020/12/28 09:30:13;;;;;;;;;;;;;;;-1.22;84.63;102013.46;1830093;77;20193;-41
2020/12/28 09:32:42;;;;;;;;;;;;;;;-1.10;84.50;102008.94;1831600;77;20148;-41
2020/12/28 09:35:15;;;;;;;;;;;;;;;-1.07;83.91;102000.11;1805629;77;20221;-39
2020/12/28 09:37:54;;;;;;;;;;;;;;;-0.98;83.10;101994.11;1813292;77;20184;-40
2020/12/28 09:40:35;;;;;;;;;;;;;;;-0.91;82.13;101992.33;1789099;77;20188;-41
2020/12/28 09:43:06;;;;;;;;;;;;;;;-0.88;80.85;101990.33;1830886;77;20297;-42
2020/12/28 09:45:36;;;;;;;;;;;;;;;-0.93;80.88;101986.25;1760893;78;20172;-39
2020/12/28 09:48:04;;;;;;;;;;;;;;;-0.87;80.82;101971.11;1844780;77;20467;-40
2020/12/28 09:50:36;;;;;;;;;;;;;;;-0.79;79.78;101977.93;1797521;77;20507;-39
2020/12/28 09:53:04;;;;;;;;;;;;;;;-0.78;78.24;101970.66;1830072;77;20306;-41
2020/12/28 09:55:33;;;;;;;;;;;;;;;-0.80;77.68;101968.44;1829256;77;20318;-43
2020/12/28 09:58:04;;;;;;;;;;;;;;;-0.73;78.12;101955.05;1770815;77;20521;-41
2020/12/28 10:00:34;;;;;;;;;;;;;;;-0.69;78.39;101950.52;1784773;77;20180;-42
2020/12/28 10:03:02;;;;;;;;;;;;;;;-0.72;77.91;101938.77;1829374;77;20211;-40
2020/12/28 10:05:32;;;;;;;;;;;;;;;-0.71;77.85;101930.24;1830573;77;20216;-41
2020/12/28 10:08:00;;;;;;;;;;;;;;;-0.72;77.36;101938.77;1831804;77;20192;-41
2020/12/28 10:10:34;;;;;;;;;;;;;;;-0.69;77.33;101940.22;1835849;77;20296;-41
2020/12/28 10:13:14;;;;;;;;;;;;;;;-0.66;77.39;101924.94;1781169;78;20191;-42
2020/12/28 10:15:47;;;;;;;;;;;;;;;-0.64;76.67;101901.80;1799851;78;20208;-53
2020/12/28 10:18:24;;;;;;;;;;;;;;;-0.62;75.54;101913.08;1833300;77;20275;-43
2020/12/28 10:20:52;;;;;;;;;;;;;;;-0.57;74.96;101914.17;1829464;77;20160;-41
2020/12/28 10:26:52;;;;;;;;;;;;;;;-0.53;74.29;101903.22;1883364;74;20212;-40
2020/12/28 10:29:20;;;;;;;;;;;;;;;-0.60;73.72;101895.61;1863734;75;20485;-41
2020/12/28 10:31:47;;;;;;;;;;;;;;;-0.57;73.79;101890.59;1869871;75;20201;-41
2020/12/28 10:34:15;;;;;;;;;;;;;;;-0.45;73.89;101898.00;1874319;75;20198;-39
2020/12/28 10:36:45;;;;;;;;;;;;;;;-0.36;73.14;101882.09;1868901;75;20146;-42
2020/12/28 10:39:15;;;;;;;;;;;;;;;-0.31;72.19;101887.05;1871243;75;20191;-43
2020/12/28 10:41:42;;;;;;;;;;;;;;;-0.29;71.76;101879.00;1869819;75;20166;-40
2020/12/28 10:44:10;;;;;;;;;;;;;;;-0.26;71.52;101854.67;1868320;75;20179;-42
2020/12/28 10:46:39;;;;;;;;;;;;;;;-0.25;71.27;101877.91;1856235;75;20207;-39
2020/12/28 10:49:07;;;;;;;;;;;;;;;-0.27;70.80;101870.94;1858212;75;20202;-42
2020/12/28 10:51:35;;;;;;;;;;;;;;;-0.23;70.58;101870.25;1872858;75;20312;-40
2020/12/28 10:54:03;;;;;;;;;;;;;;;-0.21;70.34;101864.78;1873994;75;20159;-41
2020/12/28 10:56:31;;;;;;;;;;;;;;;-0.23;70.37;101849.23;1867115;75;20197;-42
2020/12/28 10:58:59;;;;;;;;;;;;;;;-0.30;69.75;101861.36;1874006;75;20169;-43
2020/12/28 11:01:27;;;;;;;;;;;;;;;-0.45;69.50;101868.38;1871391;75;20269;-43
2020/12/28 11:03:59;;;;;;;;;;;;;;;-0.58;69.79;101872.08;1832203;77;20607;-41
2020/12/28 11:06:33;;;;;;;;;;;;;;;-0.64;70.31;101866.64;1757533;79;20203;-41
2020/12/28 11:09:03;;;;;;;;;;;;;;;-0.67;70.49;101863.05;1811867;77;20227;-42
2020/12/28 11:11:31;;;;;;;;;;;;;;;-0.71;70.54;101876.58;1811096;78;20411;-42
2020/12/28 11:14:01;;;;;;;;;;;;;;;-0.75;70.71;101873.39;1782056;78;20200;-40
2020/12/28 11:16:30;;;;;;;;;;;;;;;-0.76;70.73;101862.61;1816474;77;20192;-41
2020/12/28 11:18:58;;;;;;;;;;;;;;;-0.75;70.81;101867.84;1817789;78;20154;-39
2020/12/28 11:21:25;;;;;;;;;;;;;;;-0.69;70.98;101859.11;1812933;77;20331;-42
2020/12/28 11:24:02;;;;;;;;;;;;;;;-0.61;70.86;101860.77;1809734;77;20197;-40
2020/12/28 11:26:32;;;;;;;;;;;;;;;-0.52;70.69;101850.87;1795983;78;20203;-40
2020/12/28 11:29:02;;;;;;;;;;;;;;;-0.35;70.55;101849.97;1804999;78;20221;-39
2020/12/28 11:31:30;;;;;;;;;;;;;;;-0.17;70.16;101866.67;1807106;78;20171;-39
2020/12/28 11:33:58;;;;;;;;;;;;;;;-0.09;69.78;101868.78;1811353;78;20200;-39
2020/12/28 11:36:28;;;;;;;;;;;;;;;-0.06;69.21;101864.16;1807206;78;20537;-42
2020/12/28 11:38:57;;;;;;;;;;;;;;;-0.04;69.07;101850.53;1772432;78;20131;-42
2020/12/28 11:41:24;;;;;;;;;;;;;;;-0.11;68.75;101854.94;1805228;78;20230;-42
2020/12/28 11:43:52;;;;;;;;;;;;;;;-0.26;68.66;101836.20;1806610;78;20186;-41
2020/12/28 11:46:24;;;;;;;;;;;;;;;-0.45;68.93;101847.37;1778644;78;20290;-43
2020/12/28 11:49:13;;;;;;;;;;;;;;;-0.56;69.26;101855.41;1771237;78;20488;-41
2020/12/28 11:51:46;;;;;;;;;;;;;;;-0.68;69.67;101845.84;1755881;78;20430;-42
2020/12/28 11:54:17;;;;;;;;;;;;;;;-0.76;69.92;101839.44;1774098;78;20634;-41
2020/12/28 11:56:45;;;;;;;;;;;;;;;-0.84;70.13;101839.06;1812602;78;20262;-41
2020/12/28 11:59:13;;;;;;;;;;;;;;;-0.87;70.58;101848.84;1808480;78;20538;-41
2020/12/28 12:01:47;;;;;;;;;;;;;;;-0.88;70.86;101852.61;1809788;78;20290;-38
2020/12/28 12:04:18;;;;;;;;;;;;;;;-0.88;71.00;101852.22;1803272;78;20190;-41
2020/12/28 12:06:52;;;;;;;;;;;;;;;-0.87;71.26;101855.27;1758585;78;20439;-41
2020/12/28 12:09:22;;;;;;;;;;;;;;;-0.87;71.32;101843.69;1800989;78;20153;-41
2020/12/28 12:11:50;;;;;;;;;;;;;;;-0.87;71.40;101850.52;1813237;78;20190;-41
2020/12/28 12:14:18;;;;;;;;;;;;;;;-0.88;71.57;101843.20;1811979;78;20192;-39
2020/12/28 12:16:47;;;;;;;;;;;;;;;-0.89;71.64;101852.13;1805778;78;20202;-43
2020/12/28 12:19:17;;;;;;;;;;;;;;;-0.91;71.75;101849.88;1811531;78;20230;-44
2020/12/28 12:21:44;;;;;;;;;;;;;;;-0.96;71.69;101848.78;1808668;78;20180;-41
2020/12/28 12:24:12;;;;;;;;;;;;;;;-1.02;71.73;101835.62;1805702;78;20212;-43
2020/12/28 12:26:42;;;;;;;;;;;;;;;-1.08;71.77;101840.48;1805138;78;20190;-40
2020/12/28 12:29:09;;;;;;;;;;;;;;;-1.15;71.91;101841.88;1808741;78;20275;-42
2020/12/28 12:31:37;;;;;;;;;;;;;;;-1.21;72.15;101852.75;1807008;78;20251;-43
2020/12/28 12:34:05;;;;;;;;;;;;;;;-1.25;72.27;101840.95;1806054;78;20192;-42
2020/12/28 12:36:33;;;;;;;;;;;;;;;-1.31;72.31;101835.08;1805669;78;20497;-42
2020/12/28 12:39:01;;;;;;;;;;;;;;;-1.31;72.32;101835.48;1810366;78;20561;-43
2020/12/28 12:41:29;;;;;;;;;;;;;;;-1.34;72.31;101825.95;1810554;78;20347;-42
2020/12/28 12:43:57;;;;;;;;;;;;;;;-1.36;72.38;101831.41;1809149;78;20135;-43
2020/12/28 12:46:26;;;;;;;;;;;;;;;-1.39;72.33;101824.84;1810944;78;20214;-42
2020/12/28 12:48:55;;;;;;;;;;;;;;;-1.40;72.44;101820.50;1807457;78;20328;-45
2020/12/28 12:51:23;;;;;;;;;;;;;;;-1.41;72.47;101814.88;1806603;78;20259;-43
2020/12/28 12:53:53;;;;;;;;;;;;;;;-1.41;72.55;101804.98;1807996;78;20492;-43
2020/12/28 12:56:21;;;;;;;;;;;;;;;-1.43;72.59;101813.91;1816407;78;20190;-41
2020/12/28 12:58:55;;;;;;;;;;;;;;;-1.43;72.72;101815.59;1806702;78;20178;-42
2020/12/28 13:01:25;;;;;;;;;;;;;;;-1.43;72.67;101812.62;1829697;77;20344;-43